Time;durP1;ratioP1;P1;durP2;ratioP2;P2;SDS_P1;SDS_P2;PMS_P1;PMS_P2;Temp;Humidity;BMP_temperature;BMP_pressure;BME280_temperature;BME280_humidity;BME280_pressure;Samples;Min_cycle;Max_cycle;Signal;HPM_P1;HPM_P2
2023/01/31 00:01:35;;;;;;;;;;;4.60;99.90;;;;;;5008214;28;19939;-71
2023/01/31 00:04:02;;;;;;;;;;;4.60;99.90;;;;;;5021577;28;20012;-71
2023/01/31 00:06:37;;;;;;;;;;;4.60;99.90;;;;;;5011888;28;19914;-71
2023/01/31 00:09:04;;;;;;;;;;;4.60;99.90;;;;;;5013961;28;19913;-71
2023/01/31 00:11:30;;;;;;;;;;;4.70;99.90;;;;;;5012403;28;19913;-72
2023/01/31 00:13:56;;;;;;;;;;;4.70;99.90;;;;;;5020085;28;19944;-72
2023/01/31 00:16:22;;;;;;;;;;;4.70;99.90;;;;;;5002939;28;20614;-74
2023/01/31 00:18:48;;;;;;;;;;;4.70;99.90;;;;;;5011267;28;19913;-72
2023/01/31 00:21:18;;;;;;;;;;;4.80;99.90;;;;;;5012657;28;19989;-72
2023/01/31 00:23:44;;;;;;;;;;;4.80;99.90;;;;;;5010777;28;19909;-71
2023/01/31 00:26:09;;;;;;;;;;;4.90;99.90;;;;;;5013714;28;20008;-72
2023/01/31 00:28:35;;;;;;;;;;;4.90;99.90;;;;;;5009736;28;19914;-70
2023/01/31 00:31:00;;;;;;;;;;;5.00;99.90;;;;;;5010544;28;19961;-74
2023/01/31 00:33:26;;;;;;;;;;;5.10;99.90;;;;;;5008058;28;19910;-74
2023/01/31 00:35:51;;;;;;;;;;;5.20;99.90;;;;;;5010284;28;19920;-73
2023/01/31 00:38:17;;;;;;;;;;;5.20;99.90;;;;;;5010953;28;20000;-73
2023/01/31 00:40:50;;;;;;;;;;;5.30;99.90;;;;;;5008607;28;20406;-73
2023/01/31 00:43:15;;;;;;;;;;;5.30;99.90;;;;;;5006179;28;19936;-74
2023/01/31 00:45:41;;;;;;;;;;;5.30;99.90;;;;;;5004658;28;20390;-74
2023/01/31 00:48:06;;;;;;;;;;;5.30;99.90;;;;;;5012966;28;19917;-74
2023/01/31 00:50:31;;;;;;;;;;;5.30;99.90;;;;;;5004717;28;20378;-73
2023/01/31 00:52:57;;;;;;;;;;;5.30;99.90;;;;;;5003585;28;19957;-74
2023/01/31 00:55:22;;;;;;;;;;;5.20;99.90;;;;;;5011953;28;19991;-74
2023/01/31 00:57:48;;;;;;;;;;;5.20;99.90;;;;;;5008219;28;19932;-74
2023/01/31 01:00:14;;;;;;;;;;;5.30;99.90;;;;;;5008766;28;19997;-73
2023/01/31 01:02:39;;;;;;;;;;;5.20;99.90;;;;;;5017778;28;20483;-74
2023/01/31 01:05:05;;;;;;;;;;;5.30;99.90;;;;;;5005594;28;19944;-73
2023/01/31 01:07:31;;;;;;;;;;;5.30;99.90;;;;;;5006723;28;19957;-73
2023/01/31 01:09:57;;;;;;;;;;;5.30;99.90;;;;;;5005315;28;19922;-73
2023/01/31 01:12:22;;;;;;;;;;;5.20;99.90;;;;;;5013636;28;20453;-72
2023/01/31 01:14:48;;;;;;;;;;;5.30;99.90;;;;;;5008101;28;19913;-72
2023/01/31 01:17:13;;;;;;;;;;;5.20;99.90;;;;;;5004880;28;20004;-73
2023/01/31 01:19:39;;;;;;;;;;;5.10;99.90;;;;;;5022189;28;19960;-73
2023/01/31 01:22:04;;;;;;;;;;;5.10;99.90;;;;;;5005062;28;20000;-73
2023/01/31 01:24:30;;;;;;;;;;;5.10;99.90;;;;;;5013083;28;19921;-73
2023/01/31 01:26:56;;;;;;;;;;;5.10;99.90;;;;;;5005485;28;19914;-73
2023/01/31 01:29:21;;;;;;;;;;;5.10;99.90;;;;;;5000268;28;20666;-72
2023/01/31 01:31:47;;;;;;;;;;;5.10;99.90;;;;;;5013476;28;19936;-75
2023/01/31 01:34:14;;;;;;;;;;;5.10;99.90;;;;;;5012871;28;20460;-73
2023/01/31 01:36:39;;;;;;;;;;;5.10;99.90;;;;;;5005094;28;19909;-73
2023/01/31 01:39:07;;;;;;;;;;;5.00;99.90;;;;;;4997042;28;20280;-73
2023/01/31 01:41:33;;;;;;;;;;;5.10;99.90;;;;;;5002307;28;19979;-73
2023/01/31 01:43:59;;;;;;;;;;;5.10;99.90;;;;;;5009778;28;19913;-73
2023/01/31 01:46:25;;;;;;;;;;;5.10;99.90;;;;;;5006681;28;19914;-74
2023/01/31 01:48:53;;;;;;;;;;;5.20;99.90;;;;;;5017147;28;19924;-71
2023/01/31 01:51:19;;;;;;;;;;;5.20;99.90;;;;;;5006724;28;20514;-72
2023/01/31 01:53:46;;;;;;;;;;;5.20;99.90;;;;;;5016151;28;19996;-72
2023/01/31 01:56:32;;;;;;;;;;;5.20;99.90;;;;;;5000395;28;19985;-70
2023/01/31 01:59:17;;;;;;;;;;;5.20;99.90;;;;;;5005172;28;20330;-71
2023/01/31 02:01:44;;;;;;;;;;;5.30;99.90;;;;;;5006545;28;19929;-72
2023/01/31 02:04:12;;;;;;;;;;;5.40;99.90;;;;;;5001483;28;19917;-71
2023/01/31 02:06:37;;;;;;;;;;;5.40;99.90;;;;;;5007803;28;19956;-70
2023/01/31 02:09:05;;;;;;;;;;;5.50;99.90;;;;;;5005473;28;19921;-72
2023/01/31 02:11:31;;;;;;;;;;;5.50;99.90;;;;;;5006283;28;19967;-72
2023/01/31 02:14:07;;;;;;;;;;;5.60;99.90;;;;;;5005849;28;19914;-71
2023/01/31 02:16:33;;;;;;;;;;;5.60;99.90;;;;;;4999709;28;19996;-73
2023/01/31 02:18:59;;;;;;;;;;;5.50;99.90;;;;;;5007763;28;19917;-71
2023/01/31 02:21:33;;;;;;;;;;;5.50;99.90;;;;;;5002507;28;19913;-71
2023/01/31 02:24:09;;;;;;;;;;;5.50;99.90;;;;;;5009974;28;20291;-72
2023/01/31 02:26:53;;;;;;;;;;;5.60;99.90;;;;;;5009238;28;20012;-71
2023/01/31 02:29:42;;;;;;;;;;;5.70;99.90;;;;;;5016868;28;19921;-72
2023/01/31 02:32:10;;;;;;;;;;;5.70;99.90;;;;;;4999019;28;20472;-71
2023/01/31 02:34:51;;;;;;;;;;;5.70;99.90;;;;;;5005113;28;19973;-71
2023/01/31 02:37:24;;;;;;;;;;;5.70;99.90;;;;;;5003201;28;20374;-72
2023/01/31 02:39:59;;;;;;;;;;;5.70;99.90;;;;;;5009052;28;20016;-73
2023/01/31 02:42:37;;;;;;;;;;;5.70;99.90;;;;;;5002051;28;19917;-72
2023/01/31 02:45:03;;;;;;;;;;;5.70;99.90;;;;;;5002059;28;19921;-71
2023/01/31 02:47:31;;;;;;;;;;;5.60;99.90;;;;;;5004120;28;19921;-71
2023/01/31 02:50:01;;;;;;;;;;;5.60;99.90;;;;;;5005213;28;19921;-71
2023/01/31 02:52:35;;;;;;;;;;;5.60;99.90;;;;;;5006213;28;19914;-71
2023/01/31 02:58:26;;;;;;;;;;;5.60;99.90;;;;;;4989881;28;19976;-76
2023/01/31 03:00:55;;;;;;;;;;;5.50;99.90;;;;;;4967908;28;20007;-76
2023/01/31 03:03:24;;;;;;;;;;;5.50;99.90;;;;;;5004139;28;19918;-77
2023/01/31 03:06:08;;;;;;;;;;;5.60;99.90;;;;;;5005829;28;20501;-79
2023/01/31 03:08:34;;;;;;;;;;;5.60;99.90;;;;;;5011336;28;19929;-74
2023/01/31 03:11:04;;;;;;;;;;;5.60;99.90;;;;;;5001645;28;19917;-75
2023/01/31 03:13:47;;;;;;;;;;;5.60;99.90;;;;;;5006018;28;19920;-72
2023/01/31 03:19:21;;;;;;;;;;;5.70;99.90;;;;;;4996625;28;19925;-80
2023/01/31 03:22:04;;;;;;;;;;;5.70;99.90;;;;;;5003045;28;19918;-76
2023/01/31 03:24:30;;;;;;;;;;;5.70;99.90;;;;;;5008933;28;19917;-78
2023/01/31 03:26:56;;;;;;;;;;;5.70;99.90;;;;;;5009332;28;19914;-75
2023/01/31 03:29:23;;;;;;;;;;;5.70;99.90;;;;;;5015799;28;19975;-76
2023/01/31 03:31:53;;;;;;;;;;;5.80;99.90;;;;;;5007724;28;21212;-73
2023/01/31 03:34:18;;;;;;;;;;;5.80;99.90;;;;;;5012995;28;20274;-75
2023/01/31 03:36:50;;;;;;;;;;;5.80;99.90;;;;;;5006525;28;20371;-78
2023/01/31 03:39:34;;;;;;;;;;;5.80;99.90;;;;;;5015178;28;19921;-74
2023/01/31 03:42:06;;;;;;;;;;;5.80;99.90;;;;;;5028389;28;19916;-75
2023/01/31 03:44:50;;;;;;;;;;;5.70;99.90;;;;;;5032569;28;19914;-73
2023/01/31 03:47:19;;;;;;;;;;;5.80;99.90;;;;;;5008269;28;19913;-72
2023/01/31 03:49:46;;;;;;;;;;;5.70;99.90;;;;;;5019388;28;19963;-75
2023/01/31 03:52:15;;;;;;;;;;;5.70;99.90;;;;;;5000918;28;20005;-75
2023/01/31 03:54:45;;;;;;;;;;;5.70;99.90;;;;;;5007559;28;19914;-76
2023/01/31 03:57:13;;;;;;;;;;;5.80;99.90;;;;;;5015578;28;19971;-80
2023/01/31 03:59:39;;;;;;;;;;;5.70;99.90;;;;;;5012586;28;20126;-78
2023/01/31 04:02:07;;;;;;;;;;;5.60;99.90;;;;;;5023107;28;20660;-76
2023/01/31 04:04:39;;;;;;;;;;;5.60;99.90;;;;;;5007389;28;19913;-78
2023/01/31 04:07:05;;;;;;;;;;;5.60;99.90;;;;;;5007395;28;20489;-75
2023/01/31 04:09:31;;;;;;;;;;;5.70;99.90;;;;;;5007542;28;19922;-73
2023/01/31 04:11:58;;;;;;;;;;;5.60;99.90;;;;;;5011038;28;19916;-71
2023/01/31 04:14:23;;;;;;;;;;;5.70;99.90;;;;;;5008864;28;19941;-77
2023/01/31 04:16:49;;;;;;;;;;;5.70;99.90;;;;;;5009657;28;20468;-77
2023/01/31 04:19:14;;;;;;;;;;;5.70;99.90;;;;;;5024306;28;19918;-78
2023/01/31 04:21:40;;;;;;;;;;;5.70;99.90;;;;;;5024195;28;19918;-73
2023/01/31 04:24:08;;;;;;;;;;;5.80;99.90;;;;;;5011578;28;19932;-73
2023/01/31 04:26:33;;;;;;;;;;;5.80;99.90;;;;;;5019451;28;19917;-73
2023/01/31 04:28:59;;;;;;;;;;;5.90;99.90;;;;;;5004808;28;19918;-73
2023/01/31 04:31:24;;;;;;;;;;;6.00;99.90;;;;;;5006631;28;19918;-72
2023/01/31 04:33:50;;;;;;;;;;;6.10;99.90;;;;;;5012133;28;19924;-73
2023/01/31 04:36:15;;;;;;;;;;;6.10;99.90;;;;;;5005472;28;19921;-74
2023/01/31 04:38:41;;;;;;;;;;;6.10;99.90;;;;;;4994189;28;20415;-73
2023/01/31 04:41:07;;;;;;;;;;;6.10;99.90;;;;;;5006953;28;19922;-74
2023/01/31 04:43:32;;;;;;;;;;;6.20;99.90;;;;;;5003395;28;19922;-73
2023/01/31 04:45:58;;;;;;;;;;;6.20;99.90;;;;;;4999055;28;19957;-74
2023/01/31 04:48:23;;;;;;;;;;;6.20;99.90;;;;;;5003917;28;19936;-73
2023/01/31 04:50:49;;;;;;;;;;;6.30;99.90;;;;;;5016784;28;20448;-74
2023/01/31 04:53:14;;;;;;;;;;;6.30;99.90;;;;;;5009108;28;19924;-74
2023/01/31 04:55:40;;;;;;;;;;;6.30;99.90;;;;;;5009182;28;19914;-74
2023/01/31 04:58:05;;;;;;;;;;;6.30;99.90;;;;;;5014104;28;19920;-75
2023/01/31 05:00:31;;;;;;;;;;;6.40;99.90;;;;;;5004294;28;20291;-73
2023/01/31 05:02:56;;;;;;;;;;;6.30;99.90;;;;;;5031350;28;19925;-68
2023/01/31 05:05:22;;;;;;;;;;;6.30;99.90;;;;;;5023810;28;19914;-79
2023/01/31 05:07:47;;;;;;;;;;;6.40;99.90;;;;;;5015764;28;20403;-73
2023/01/31 05:10:13;;;;;;;;;;;6.40;99.90;;;;;;5010792;28;19988;-75
2023/01/31 05:12:38;;;;;;;;;;;6.30;99.90;;;;;;5004561;28;19913;-74
2023/01/31 05:15:06;;;;;;;;;;;6.30;99.90;;;;;;5002129;28;20034;-73
2023/01/31 05:17:32;;;;;;;;;;;6.30;99.90;;;;;;5006430;28;19922;-77
2023/01/31 05:19:58;;;;;;;;;;;6.20;99.90;;;;;;5017616;28;20017;-76
2023/01/31 05:22:24;;;;;;;;;;;6.20;99.90;;;;;;5016723;28;19913;-78
2023/01/31 05:24:50;;;;;;;;;;;6.20;99.90;;;;;;5016485;28;19956;-74
2023/01/31 05:27:16;;;;;;;;;;;6.20;99.90;;;;;;5016396;28;20449;-76
2023/01/31 05:29:41;;;;;;;;;;;6.10;99.90;;;;;;5007599;28;20063;-76
2023/01/31 05:32:07;;;;;;;;;;;6.20;99.90;;;;;;5013019;28;19936;-76
2023/01/31 05:34:33;;;;;;;;;;;6.20;99.90;;;;;;5008186;28;19921;-75
2023/01/31 05:36:59;;;;;;;;;;;6.10;99.90;;;;;;5013255;28;20007;-74
2023/01/31 05:39:24;;;;;;;;;;;6.10;99.90;;;;;;5010006;28;19996;-81
2023/01/31 05:41:51;;;;;;;;;;;6.20;99.90;;;;;;5005453;28;19917;-73
2023/01/31 05:44:17;;;;;;;;;;;6.20;99.90;;;;;;5002840;28;19917;-73
2023/01/31 05:46:43;;;;;;;;;;;6.10;99.90;;;;;;5002863;28;19913;-71
2023/01/31 05:49:08;;;;;;;;;;;6.10;99.90;;;;;;5014088;28;20007;-73
2023/01/31 05:51:34;;;;;;;;;;;6.20;99.90;;;;;;5003847;28;20423;-74
2023/01/31 05:54:00;;;;;;;;;;;6.10;99.90;;;;;;5010112;28;19913;-77
2023/01/31 05:56:25;;;;;;;;;;;6.20;99.90;;;;;;5004274;28;20036;-72
2023/01/31 05:58:51;;;;;;;;;;;6.20;99.90;;;;;;5004835;28;19917;-73
2023/01/31 06:01:17;;;;;;;;;;;6.10;99.90;;;;;;5014026;28;19914;-72
2023/01/31 06:03:42;;;;;;;;;;;6.20;99.90;;;;;;5006962;28;19909;-72
2023/01/31 06:06:08;;;;;;;;;;;6.20;99.90;;;;;;5005213;28;19932;-74
2023/01/31 06:08:33;;;;;;;;;;;6.10;99.90;;;;;;5011451;28;19917;-73
2023/01/31 06:11:03;;;;;;;;;;;6.10;99.90;;;;;;5012265;28;19993;-73
2023/01/31 06:13:29;;;;;;;;;;;6.10;99.90;;;;;;5004201;28;19925;-73
2023/01/31 06:15:55;;;;;;;;;;;6.10;99.90;;;;;;5005004;28;19913;-72
2023/01/31 06:18:20;;;;;;;;;;;6.10;99.90;;;;;;5004338;28;19944;-74
2023/01/31 06:20:46;;;;;;;;;;;6.10;99.90;;;;;;5007877;28;19932;-74
2023/01/31 06:23:11;;;;;;;;;;;6.10;99.90;;;;;;5000955;28;20370;-74
2023/01/31 06:25:37;;;;;;;;;;;6.00;99.90;;;;;;5006445;28;19913;-73
2023/01/31 06:28:03;;;;;;;;;;;6.10;99.90;;;;;;5013023;28;19917;-72
2023/01/31 06:30:29;;;;;;;;;;;6.00;99.90;;;;;;5009578;28;19985;-74
2023/01/31 06:32:54;;;;;;;;;;;6.00;99.90;;;;;;5012845;28;19949;-73
2023/01/31 06:35:20;;;;;;;;;;;6.10;99.90;;;;;;5021671;28;19913;-74
2023/01/31 06:37:45;;;;;;;;;;;6.00;99.90;;;;;;5016577;28;19913;-73
2023/01/31 06:40:11;;;;;;;;;;;6.10;99.90;;;;;;5011855;28;19918;-75
2023/01/31 06:42:36;;;;;;;;;;;6.00;99.90;;;;;;5020349;28;19937;-75
2023/01/31 06:45:02;;;;;;;;;;;6.00;99.90;;;;;;5026838;28;19937;-74
2023/01/31 06:47:27;;;;;;;;;;;6.00;99.90;;;;;;5020968;28;19910;-75
2023/01/31 06:49:53;;;;;;;;;;;6.00;99.90;;;;;;5023056;28;19913;-73
2023/01/31 06:52:18;;;;;;;;;;;6.00;99.90;;;;;;5016905;28;19914;-72
2023/01/31 06:54:44;;;;;;;;;;;6.00;99.90;;;;;;5010395;28;19917;-73
2023/01/31 06:57:09;;;;;;;;;;;6.00;99.90;;;;;;5005237;28;19932;-73
2023/01/31 06:59:35;;;;;;;;;;;6.00;99.90;;;;;;5003432;28;19909;-72
2023/01/31 07:02:00;;;;;;;;;;;6.00;99.90;;;;;;5011726;28;19939;-73
2023/01/31 07:04:25;;;;;;;;;;;6.00;99.90;;;;;;5002979;28;19932;-74
2023/01/31 07:06:51;;;;;;;;;;;6.00;99.90;;;;;;5003803;28;19980;-72
2023/01/31 07:09:16;;;;;;;;;;;6.10;99.90;;;;;;5016486;28;19917;-73
2023/01/31 07:11:42;;;;;;;;;;;6.10;99.90;;;;;;5005716;28;19993;-73
2023/01/31 07:14:07;;;;;;;;;;;6.10;99.90;;;;;;5019736;28;20557;-74
2023/01/31 07:16:36;;;;;;;;;;;6.00;99.90;;;;;;5023475;28;20278;-71
2023/01/31 07:19:02;;;;;;;;;;;6.10;99.90;;;;;;5006644;28;19909;-73
2023/01/31 07:21:28;;;;;;;;;;;6.10;99.90;;;;;;5004562;28;19920;-73
2023/01/31 07:23:54;;;;;;;;;;;6.10;99.90;;;;;;5004416;28;20220;-73
2023/01/31 07:26:19;;;;;;;;;;;6.10;99.90;;;;;;5007325;28;19909;-74
2023/01/31 07:28:45;;;;;;;;;;;6.00;99.90;;;;;;5009689;28;19918;-73
2023/01/31 07:31:11;;;;;;;;;;;6.10;99.90;;;;;;4997845;28;20280;-72
2023/01/31 07:33:37;;;;;;;;;;;6.10;99.90;;;;;;4997356;28;19917;-71
2023/01/31 07:36:03;;;;;;;;;;;6.20;99.90;;;;;;5004109;28;19909;-72
2023/01/31 07:38:32;;;;;;;;;;;6.10;99.90;;;;;;5006613;28;19914;-75
2023/01/31 07:41:02;;;;;;;;;;;6.10;99.90;;;;;;5007908;28;19909;-73
2023/01/31 07:43:28;;;;;;;;;;;6.10;99.90;;;;;;5002235;28;19964;-72
2023/01/31 07:45:53;;;;;;;;;;;6.10;99.90;;;;;;5000678;28;19995;-73
2023/01/31 07:48:22;;;;;;;;;;;6.10;99.90;;;;;;5009222;28;19917;-73
2023/01/31 07:50:58;;;;;;;;;;;6.10;99.90;;;;;;5004140;28;19914;-74
2023/01/31 07:53:23;;;;;;;;;;;6.10;99.90;;;;;;5003498;28;19914;-73
2023/01/31 07:55:49;;;;;;;;;;;6.20;99.90;;;;;;5014765;28;19924;-74
2023/01/31 07:58:15;;;;;;;;;;;6.20;99.90;;;;;;5004874;28;19941;-74
2023/01/31 08:03:32;;;;;;;;;;;6.20;99.90;;;;;;5004042;28;19921;-73
2023/01/31 08:06:10;;;;;;;;;;;6.10;99.90;;;;;;5013174;28;20410;-72
2023/01/31 08:08:36;;;;;;;;;;;6.20;99.90;;;;;;5009915;28;19921;-73
2023/01/31 08:11:03;;;;;;;;;;;6.20;99.90;;;;;;5009790;28;19928;-73
2023/01/31 08:13:30;;;;;;;;;;;6.20;99.90;;;;;;5005380;28;19956;-73
2023/01/31 08:15:55;;;;;;;;;;;6.20;99.90;;;;;;5006840;28;19910;-74
2023/01/31 08:18:21;;;;;;;;;;;6.10;99.90;;;;;;5011566;28;20504;-73
2023/01/31 08:20:46;;;;;;;;;;;6.10;99.90;;;;;;5001841;28;19909;-72
2023/01/31 08:23:11;;;;;;;;;;;6.10;99.90;;;;;;5009108;28;19924;-73
2023/01/31 08:25:37;;;;;;;;;;;6.20;99.90;;;;;;5008996;28;19921;-74
2023/01/31 08:28:02;;;;;;;;;;;6.20;99.90;;;;;;5004922;28;19909;-72
2023/01/31 08:30:28;;;;;;;;;;;6.30;99.90;;;;;;5009740;28;19967;-72
2023/01/31 08:32:54;;;;;;;;;;;6.30;99.90;;;;;;5009063;28;19918;-73
2023/01/31 08:35:19;;;;;;;;;;;6.30;99.90;;;;;;5016921;28;19913;-74
2023/01/31 08:37:45;;;;;;;;;;;6.40;99.90;;;;;;5006485;28;20004;-73
2023/01/31 08:40:11;;;;;;;;;;;6.30;99.90;;;;;;5016021;28;19970;-72
2023/01/31 08:42:36;;;;;;;;;;;6.30;99.90;;;;;;5012424;28;19916;-73
2023/01/31 08:45:02;;;;;;;;;;;6.30;99.90;;;;;;5010537;28;19909;-73
2023/01/31 08:47:27;;;;;;;;;;;6.30;99.90;;;;;;5014561;28;19909;-72
2023/01/31 08:49:53;;;;;;;;;;;6.30;99.90;;;;;;5014706;28;19920;-73
2023/01/31 08:52:18;;;;;;;;;;;6.30;99.90;;;;;;5021411;28;19913;-73
2023/01/31 08:54:44;;;;;;;;;;;6.30;99.90;;;;;;5022700;28;19917;-72
2023/01/31 08:57:09;;;;;;;;;;;6.30;99.90;;;;;;5023274;28;20374;-72
2023/01/31 08:59:35;;;;;;;;;;;6.40;99.90;;;;;;5019572;28;19914;-73
2023/01/31 09:02:00;;;;;;;;;;;6.40;99.90;;;;;;5015955;28;19909;-72
2023/01/31 09:04:26;;;;;;;;;;;6.50;99.90;;;;;;5010482;28;19952;-73
2023/01/31 09:06:53;;;;;;;;;;;6.60;99.90;;;;;;5008635;28;20286;-73
2023/01/31 09:09:19;;;;;;;;;;;6.70;99.90;;;;;;5014813;28;20619;-72
2023/01/31 09:11:44;;;;;;;;;;;6.70;99.90;;;;;;5017527;28;19952;-72
2023/01/31 09:14:10;;;;;;;;;;;6.70;99.90;;;;;;5013078;28;19991;-73
2023/01/31 09:16:36;;;;;;;;;;;6.80;99.90;;;;;;5003102;28;19960;-74
2023/01/31 09:19:01;;;;;;;;;;;6.70;99.90;;;;;;5005551;28;19917;-73
2023/01/31 09:21:27;;;;;;;;;;;6.70;99.90;;;;;;5013265;28;19920;-73
2023/01/31 09:23:54;;;;;;;;;;;6.70;99.90;;;;;;5008854;28;19910;-73
2023/01/31 09:26:20;;;;;;;;;;;6.70;99.90;;;;;;5005083;28;19940;-73
2023/01/31 09:28:45;;;;;;;;;;;6.70;99.90;;;;;;5004637;28;19917;-73
2023/01/31 09:31:12;;;;;;;;;;;6.80;99.90;;;;;;5015897;28;19917;-72
2023/01/31 09:33:38;;;;;;;;;;;6.80;99.90;;;;;;5004755;28;19991;-73
2023/01/31 09:36:05;;;;;;;;;;;6.90;99.90;;;;;;5011427;28;19917;-73
2023/01/31 09:38:30;;;;;;;;;;;7.00;99.90;;;;;;5010012;28;19910;-73
2023/01/31 09:40:58;;;;;;;;;;;6.90;99.90;;;;;;5013777;28;19910;-73
2023/01/31 09:43:26;;;;;;;;;;;6.90;99.90;;;;;;5004904;28;20007;-73
2023/01/31 09:45:55;;;;;;;;;;;6.90;99.90;;;;;;5017620;28;19913;-73
2023/01/31 09:48:23;;;;;;;;;;;7.10;99.90;;;;;;5008564;28;19948;-73
2023/01/31 09:50:49;;;;;;;;;;;7.10;99.90;;;;;;5005466;28;20106;-74
2023/01/31 09:53:20;;;;;;;;;;;7.10;99.90;;;;;;5013611;28;19920;-74
2023/01/31 09:56:04;;;;;;;;;;;7.20;99.90;;;;;;5004741;28;19914;-74
2023/01/31 09:58:34;;;;;;;;;;;7.20;99.90;;;;;;4998394;28;19991;-73
2023/01/31 10:01:05;;;;;;;;;;;7.20;99.90;;;;;;5001745;28;19921;-74
2023/01/31 10:03:47;;;;;;;;;;;7.20;99.90;;;;;;5006554;28;20012;-72
2023/01/31 10:06:24;;;;;;;;;;;7.30;99.90;;;;;;5016162;28;19944;-73
2023/01/31 10:08:58;;;;;;;;;;;7.30;99.90;;;;;;5010098;28;19920;-74
2023/01/31 10:11:29;;;;;;;;;;;7.30;99.90;;;;;;5012154;28;19913;-73
2023/01/31 10:13:56;;;;;;;;;;;7.30;99.90;;;;;;5005340;28;19933;-74
2023/01/31 10:16:51;;;;;;;;;;;7.40;99.90;;;;;;5008989;28;20019;-74
2023/01/31 10:19:20;;;;;;;;;;;7.40;99.90;;;;;;4968742;28;20431;-74
2023/01/31 10:21:48;;;;;;;;;;;7.50;99.90;;;;;;5002568;28;19913;-72
2023/01/31 10:24:27;;;;;;;;;;;7.50;99.90;;;;;;5010075;28;19910;-72
2023/01/31 10:26:56;;;;;;;;;;;7.50;99.90;;;;;;5003213;28;19909;-72
2023/01/31 10:29:37;;;;;;;;;;;7.40;99.90;;;;;;5006890;28;19968;-73
2023/01/31 10:32:04;;;;;;;;;;;7.40;99.90;;;;;;4996133;28;19910;-72
2023/01/31 10:34:37;;;;;;;;;;;7.60;99.90;;;;;;5006599;28;19913;-73
2023/01/31 10:37:06;;;;;;;;;;;7.70;99.90;;;;;;5003036;28;20330;-72
2023/01/31 10:39:32;;;;;;;;;;;7.80;99.90;;;;;;4999618;28;19922;-73
2023/01/31 10:42:01;;;;;;;;;;;7.80;99.90;;;;;;5001492;28;19921;-72
2023/01/31 10:44:46;;;;;;;;;;;8.00;99.90;;;;;;5007870;28;19920;-74
2023/01/31 10:47:15;;;;;;;;;;;8.20;99.90;;;;;;5000158;28;19920;-74
2023/01/31 10:49:46;;;;;;;;;;;8.20;99.90;;;;;;5008954;28;19913;-73
2023/01/31 10:52:17;;;;;;;;;;;8.10;99.90;;;;;;4996006;28;20128;-73
2023/01/31 10:54:54;;;;;;;;;;;8.20;99.90;;;;;;5000162;28;19971;-73
2023/01/31 10:57:20;;;;;;;;;;;8.20;99.90;;;;;;4998852;28;19921;-73
2023/01/31 10:59:46;;;;;;;;;;;8.20;99.90;;;;;;5003023;28;19925;-74
2023/01/31 11:02:17;;;;;;;;;;;8.20;99.90;;;;;;5001243;28;19921;-74
2023/01/31 11:04:43;;;;;;;;;;;8.30;99.90;;;;;;5000835;28;20503;-75
2023/01/31 11:07:09;;;;;;;;;;;8.30;99.90;;;;;;5008764;28;20000;-74
2023/01/31 11:09:55;;;;;;;;;;;8.30;99.90;;;;;;5009558;28;19920;-73
2023/01/31 11:12:37;;;;;;;;;;;8.20;99.90;;;;;;4994408;28;19932;-72
2023/01/31 11:15:05;;;;;;;;;;;8.10;99.90;;;;;;5013406;28;19931;-73
2023/01/31 11:17:32;;;;;;;;;;;8.10;99.90;;;;;;4998823;28;19913;-72
2023/01/31 11:19:57;;;;;;;;;;;8.10;99.90;;;;;;5017869;28;19913;-74
2023/01/31 11:22:24;;;;;;;;;;;8.10;99.90;;;;;;5007745;28;20781;-73
2023/01/31 11:24:50;;;;;;;;;;;8.10;99.90;;;;;;5004923;28;19917;-74
2023/01/31 11:27:27;;;;;;;;;;;8.10;99.90;;;;;;5010586;28;19909;-72
2023/01/31 11:29:56;;;;;;;;;;;8.00;99.90;;;;;;5003267;28;19913;-73
2023/01/31 11:32:27;;;;;;;;;;;8.00;99.90;;;;;;4998872;28;19914;-73
2023/01/31 11:35:22;;;;;;;;;;;8.10;99.90;;;;;;5003582;28;20011;-72
2023/01/31 11:37:59;;;;;;;;;;;8.10;99.90;;;;;;5003083;28;19910;-73
2023/01/31 11:40:29;;;;;;;;;;;8.10;99.90;;;;;;5001705;28;20024;-73
2023/01/31 11:42:55;;;;;;;;;;;8.20;99.90;;;;;;5002133;28;19910;-74
2023/01/31 11:45:22;;;;;;;;;;;8.20;99.90;;;;;;5006568;28;19914;-76
2023/01/31 11:47:49;;;;;;;;;;;8.10;99.90;;;;;;5003272;28;19909;-73
2023/01/31 11:50:22;;;;;;;;;;;8.10;99.90;;;;;;4998537;28;19956;-73
2023/01/31 11:53:01;;;;;;;;;;;8.20;99.90;;;;;;5005185;28;19917;-74
2023/01/31 11:55:33;;;;;;;;;;;8.20;99.90;;;;;;5001030;28;19913;-73
2023/01/31 11:57:59;;;;;;;;;;;8.30;99.90;;;;;;5003303;28;19960;-73
2023/01/31 12:00:26;;;;;;;;;;;8.30;99.90;;;;;;5003353;28;20063;-74
2023/01/31 12:03:12;;;;;;;;;;;8.30;99.90;;;;;;5006677;28;19920;-74
2023/01/31 12:05:40;;;;;;;;;;;8.30;99.90;;;;;;4997546;28;19925;-73
2023/01/31 12:08:24;;;;;;;;;;;8.40;99.90;;;;;;5005909;28;19918;-72
2023/01/31 12:10:50;;;;;;;;;;;8.40;99.90;;;;;;5005941;28;19913;-71
2023/01/31 12:13:16;;;;;;;;;;;8.40;99.90;;;;;;5004629;28;19940;-72
2023/01/31 12:15:54;;;;;;;;;;;8.50;99.90;;;;;;5013311;28;19959;-76
2023/01/31 12:18:25;;;;;;;;;;;8.60;99.90;;;;;;5021304;28;19921;-75
2023/01/31 12:20:55;;;;;;;;;;;8.60;99.90;;;;;;5015507;28;19936;-77
2023/01/31 12:23:33;;;;;;;;;;;8.70;99.90;;;;;;5010339;28;19980;-75
2023/01/31 12:25:59;;;;;;;;;;;8.70;99.90;;;;;;5013851;28;19913;-75
2023/01/31 12:28:36;;;;;;;;;;;8.80;99.90;;;;;;5020390;28;20550;-73
2023/01/31 12:31:05;;;;;;;;;;;8.90;99.90;;;;;;5011681;28;19917;-75
2023/01/31 12:33:34;;;;;;;;;;;8.90;99.90;;;;;;5010995;28;19916;-72
2023/01/31 12:36:08;;;;;;;;;;;9.00;99.90;;;;;;5011850;28;19909;-77
2023/01/31 12:38:39;;;;;;;;;;;9.00;99.90;;;;;;5011797;28;19917;-75
2023/01/31 12:41:23;;;;;;;;;;;9.00;99.90;;;;;;5016188;28;19914;-76
2023/01/31 12:43:54;;;;;;;;;;;9.20;99.90;;;;;;5013954;28;20681;-74
2023/01/31 12:46:26;;;;;;;;;;;9.20;99.90;;;;;;5014941;28;19913;-73
2023/01/31 12:49:22;;;;;;;;;;;9.30;99.90;;;;;;5014420;28;19964;-74
2023/01/31 12:51:58;;;;;;;;;;;9.30;99.90;;;;;;5020414;28;19921;-74
2023/01/31 12:54:30;;;;;;;;;;;9.20;99.90;;;;;;5021921;28;19996;-75
2023/01/31 12:57:25;;;;;;;;;;;9.20;99.90;;;;;;5016089;28;19909;-76
2023/01/31 13:00:09;;;;;;;;;;;9.30;99.90;;;;;;4971693;28;20576;-73
2023/01/31 13:02:35;;;;;;;;;;;9.20;99.90;;;;;;5023685;28;20533;-74
2023/01/31 13:05:06;;;;;;;;;;;9.20;99.90;;;;;;5010647;28;19913;-74
2023/01/31 13:07:39;;;;;;;;;;;9.30;99.90;;;;;;5016150;28;19921;-74
2023/01/31 13:10:09;;;;;;;;;;;9.20;99.90;;;;;;5020271;28;20378;-76
2023/01/31 13:12:36;;;;;;;;;;;9.20;99.90;;;;;;5009717;28;19910;-74
2023/01/31 13:15:07;;;;;;;;;;;9.20;99.90;;;;;;5015006;28;19909;-71
2023/01/31 13:17:34;;;;;;;;;;;9.20;99.90;;;;;;5021300;28;19921;-74
2023/01/31 13:20:03;;;;;;;;;;;9.30;99.90;;;;;;5020659;28;19917;-74
2023/01/31 13:22:31;;;;;;;;;;;9.30;99.90;;;;;;5022937;28;19992;-73
2023/01/31 13:25:15;;;;;;;;;;;9.40;99.90;;;;;;5016046;28;20008;-74
2023/01/31 13:27:42;;;;;;;;;;;9.30;99.90;;;;;;5011542;28;20387;-77
2023/01/31 13:30:21;;;;;;;;;;;9.30;99.90;;;;;;5018804;28;19916;-70
2023/01/31 13:32:51;;;;;;;;;;;9.30;99.90;;;;;;5015610;28;19946;-73
2023/01/31 13:35:20;;;;;;;;;;;9.30;99.90;;;;;;5018776;28;19924;-75
2023/01/31 13:37:49;;;;;;;;;;;9.30;99.90;;;;;;5028604;28;19917;-70
2023/01/31 13:40:19;;;;;;;;;;;9.30;99.90;;;;;;5011784;28;19909;-73
2023/01/31 13:42:44;;;;;;;;;;;9.40;99.90;;;;;;5025557;28;19909;-76
2023/01/31 13:45:18;;;;;;;;;;;9.30;99.90;;;;;;5017193;28;19909;-72
2023/01/31 13:47:46;;;;;;;;;;;9.30;99.90;;;;;;5023030;28;20213;-69
2023/01/31 13:50:33;;;;;;;;;;;9.40;99.90;;;;;;5018078;28;21491;-73
2023/01/31 13:53:00;;;;;;;;;;;9.40;99.90;;;;;;5018095;28;20612;-70
2023/01/31 13:55:37;;;;;;;;;;;9.40;99.90;;;;;;5024579;28;19913;-70
2023/01/31 13:58:04;;;;;;;;;;;9.30;99.90;;;;;;5013781;28;19918;-72
2023/01/31 14:00:30;;;;;;;;;;;9.30;99.90;;;;;;5014870;28;19913;-71
2023/01/31 14:03:03;;;;;;;;;;;9.30;99.90;;;;;;5012703;28;19948;-70
2023/01/31 14:05:41;;;;;;;;;;;9.30;99.90;;;;;;5019376;28;19909;-71
2023/01/31 14:08:25;;;;;;;;;;;9.30;99.90;;;;;;5016308;28;20611;-72
2023/01/31 14:10:50;;;;;;;;;;;9.30;99.90;;;;;;5019877;28;19921;-72
2023/01/31 14:13:23;;;;;;;;;;;9.30;99.90;;;;;;5018571;28;19909;-69
2023/01/31 14:15:49;;;;;;;;;;;9.40;99.90;;;;;;5012168;28;19918;-70
2023/01/31 14:18:33;;;;;;;;;;;9.40;99.90;;;;;;5020539;28;19920;-73
2023/01/31 14:21:19;;;;;;;;;;;9.50;99.90;;;;;;5025416;28;19913;-74
2023/01/31 14:23:46;;;;;;;;;;;9.40;99.90;;;;;;5030069;28;19897;-74
2023/01/31 14:26:30;;;;;;;;;;;9.30;99.90;;;;;;5019399;28;19992;-73
2023/01/31 14:28:56;;;;;;;;;;;9.30;99.90;;;;;;5023953;28;19962;-75
2023/01/31 14:31:22;;;;;;;;;;;9.30;99.90;;;;;;5027622;28;19913;-73
2023/01/31 14:33:49;;;;;;;;;;;9.30;99.90;;;;;;5023840;28;20437;-74
2023/01/31 14:36:33;;;;;;;;;;;9.20;99.90;;;;;;5022217;28;19916;-76
2023/01/31 14:39:15;;;;;;;;;;;9.20;99.90;;;;;;5022811;28;19914;-75
2023/01/31 14:41:59;;;;;;;;;;;9.20;99.90;;;;;;5008358;28;19936;-77
2023/01/31 14:44:30;;;;;;;;;;;9.20;99.90;;;;;;5011240;28;19917;-73
2023/01/31 14:47:14;;;;;;;;;;;9.20;99.90;;;;;;5005649;28;19909;-74
2023/01/31 14:49:49;;;;;;;;;;;9.20;99.90;;;;;;5007306;28;19918;-76
2023/01/31 14:52:20;;;;;;;;;;;9.20;99.90;;;;;;5004314;28;19964;-76